Time;durP1;ratioP1;P1;durP2;ratioP2;P2;SDS_P1;SDS_P2;PMS_P1;PMS_P2;Temp;Humidity;BMP_temperature;BMP_pressure;BME280_temperature;BME280_humidity;BME280_pressure;Samples;Min_cycle;Max_cycle;Signal;HPM_P1;HPM_P2
2022/03/26 00:00:18;;;;;;;44.20;20.58;;;;;;;15.43;38.08;102484.47;4830783;29;96854;-71
2022/03/26 00:02:45;;;;;;;47.35;20.73;;;;;;;15.54;37.86;102478.88;4840635;29;97476;-72
2022/03/26 00:05:12;;;;;;;48.13;20.42;;;;;;;15.58;38.02;102471.66;4844841;29;97869;-70
2022/03/26 00:07:39;;;;;;;47.92;22.02;;;;;;;15.50;37.96;102471.84;4836562;29;98321;-70
2022/03/26 00:10:08;;;;;;;49.08;21.77;;;;;;;15.37;38.25;102475.78;4841398;29;96954;-70
2022/03/26 00:12:35;;;;;;;46.92;22.17;;;;;;;15.31;38.25;102483.94;4833811;29;96905;-70
2022/03/26 00:15:02;;;;;;;46.70;20.88;;;;;;;15.26;38.47;102486.72;4840881;29;97797;-70
2022/03/26 00:17:28;;;;;;;42.17;21.00;;;;;;;15.32;38.21;102486.56;4828277;29;97541;-71
2022/03/26 00:19:55;;;;;;;46.47;21.88;;;;;;;14.84;39.28;102482.53;4838237;29;96734;-72
2022/03/26 00:22:21;;;;;;;51.33;21.55;;;;;;;14.66;39.42;102486.53;4836180;29;96948;-72
2022/03/26 00:24:48;;;;;;;40.65;20.70;;;;;;;14.45;40.22;102487.06;4834169;29;97743;-71
2022/03/26 00:27:18;;;;;;;49.67;21.20;;;;;;;14.77;39.54;102491.63;4832265;29;98938;-72
2022/03/26 00:29:45;;;;;;;51.78;21.63;;;;;;;14.65;40.03;102488.31;4830000;29;96840;-70
2022/03/26 00:32:12;;;;;;;46.75;21.35;;;;;;;14.21;40.86;102480.50;4829559;29;97782;-72
2022/03/26 00:34:39;;;;;;;46.67;21.25;;;;;;;14.36;40.68;102478.38;4834558;29;99507;-70
2022/03/26 00:37:06;;;;;;;46.28;21.23;;;;;;;14.51;40.45;102487.78;4828219;29;99062;-72
2022/03/26 00:39:32;;;;;;;50.15;21.73;;;;;;;13.98;41.52;102471.25;4832136;29;98379;-72
2022/03/26 00:41:59;;;;;;;43.33;21.45;;;;;;;14.57;40.45;102473.50;4831807;29;97407;-72
2022/03/26 00:44:26;;;;;;;52.80;21.42;;;;;;;14.51;40.61;102474.47;4833723;29;99705;-70
2022/03/26 00:46:54;;;;;;;39.35;21.60;;;;;;;14.55;40.23;102467.31;4835074;29;98845;-70
2022/03/26 00:49:20;;;;;;;43.17;21.02;;;;;;;14.48;40.64;102463.94;4831260;29;98285;-71
2022/03/26 00:51:47;;;;;;;42.75;22.02;;;;;;;14.46;40.80;102460.44;4833701;29;96976;-70
2022/03/26 00:54:13;;;;;;;45.80;22.20;;;;;;;14.66;40.43;102474.13;4825659;29;99714;-70
2022/03/26 00:56:42;;;;;;;54.55;22.13;;;;;;;14.52;40.72;102470.91;4833057;29;98852;-71
2022/03/26 00:59:08;;;;;;;44.92;21.70;;;;;;;14.29;41.12;102463.47;4832957;29;98771;-70
2022/03/26 01:01:36;;;;;;;46.08;22.98;;;;;;;13.95;41.92;102465.16;4831909;29;97251;-69
2022/03/26 01:04:04;;;;;;;38.67;21.55;;;;;;;14.35;41.34;102458.00;4836943;29;100436;-70
2022/03/26 01:06:30;;;;;;;48.13;23.17;;;;;;;14.40;40.96;102465.91;4828664;29;99071;-70
2022/03/26 01:08:57;;;;;;;37.90;21.30;;;;;;;14.30;41.15;102459.03;4829912;29;97232;-71
2022/03/26 01:11:24;;;;;;;51.58;22.48;;;;;;;14.44;41.02;102461.41;4829452;29;97269;-71
2022/03/26 01:13:53;;;;;;;50.17;22.38;;;;;;;14.54;40.69;102458.47;4834611;29;101294;-72
2022/03/26 01:16:20;;;;;;;49.97;22.33;;;;;;;14.54;40.72;102454.94;4826504;29;101749;-71
2022/03/26 01:18:49;;;;;;;46.20;22.83;;;;;;;13.97;41.84;102460.69;4826918;29;98364;-72
2022/03/26 01:21:15;;;;;;;49.85;21.83;;;;;;;14.36;41.25;102459.75;4830233;29;97569;-71
2022/03/26 01:23:43;;;;;;;51.50;23.05;;;;;;;14.28;41.33;102458.19;4839376;29;96815;-71
2022/03/26 01:26:10;;;;;;;47.72;22.83;;;;;;;13.79;42.54;102459.28;4822817;29;99953;-70
2022/03/26 01:28:36;;;;;;;46.72;23.40;;;;;;;14.02;41.83;102456.13;4833600;29;97512;-70
2022/03/26 01:31:02;;;;;;;53.88;23.50;;;;;;;13.90;42.02;102454.63;4829315;29;97035;-71
2022/03/26 01:33:29;;;;;;;55.08;23.00;;;;;;;14.12;41.48;102448.81;4831395;29;101388;-71
2022/03/26 01:35:57;;;;;;;50.22;23.08;;;;;;;13.87;42.05;102449.38;4832298;29;98859;-71
2022/03/26 01:38:23;;;;;;;51.42;22.67;;;;;;;13.91;41.94;102452.84;4831508;29;96987;-71
2022/03/26 01:40:50;;;;;;;46.88;23.50;;;;;;;13.89;41.83;102444.91;4832095;29;97550;-70
2022/03/26 01:43:16;;;;;;;47.42;22.58;;;;;;;14.22;41.30;102442.38;4836061;29;98961;-70
2022/03/26 01:45:43;;;;;;;49.75;23.90;;;;;;;13.64;42.33;102443.72;4839270;29;99048;-70
2022/03/26 01:48:13;;;;;;;53.88;24.40;;;;;;;13.98;41.75;102442.03;4828600;29;96945;-70
2022/03/26 01:50:42;;;;;;;47.45;24.23;;;;;;;14.00;41.48;102435.81;4833689;29;96928;-72
2022/03/26 01:53:10;;;;;;;53.30;24.58;;;;;;;13.52;42.87;102438.66;4838991;29;97907;-70
2022/03/26 01:55:36;;;;;;;46.58;23.23;;;;;;;13.84;42.27;102438.84;4831338;29;99799;-72
2022/03/26 01:58:03;;;;;;;57.78;24.25;;;;;;;13.93;41.92;102437.72;4830184;29;96847;-70
2022/03/26 02:00:31;;;;;;;49.38;23.95;;;;;;;13.70;42.36;102437.38;4833458;29;97619;-71
2022/03/26 02:02:58;;;;;;;49.55;24.08;;;;;;;13.34;43.09;102428.38;4836474;29;99151;-71
2022/03/26 02:05:25;;;;;;;55.47;24.65;;;;;;;13.86;41.99;102429.03;4831315;29;99326;-71
2022/03/26 02:07:51;;;;;;;48.70;24.15;;;;;;;14.01;41.53;102427.81;4838401;29;96984;-71
2022/03/26 02:10:20;;;;;;;54.70;26.05;;;;;;;14.15;41.41;102427.50;4831664;29;97429;-71
2022/03/26 02:12:47;;;;;;;59.38;24.10;;;;;;;14.25;41.13;102424.56;4836055;29;99244;-73
2022/03/26 02:15:14;;;;;;;54.13;24.75;;;;;;;14.24;40.95;102422.81;4830455;29;101308;-71
2022/03/26 02:17:40;;;;;;;54.70;23.83;;;;;;;14.35;40.76;102427.88;4836267;29;97294;-71
2022/03/26 02:20:11;;;;;;;67.22;24.13;;;;;;;13.93;41.85;102430.63;4831943;29;96956;-70
2022/03/26 02:22:39;;;;;;;52.17;24.48;;;;;;;13.66;42.41;102427.72;4845064;29;97854;-70
2022/03/26 02:25:07;;;;;;;51.83;23.95;;;;;;;13.57;42.43;102439.44;4838254;29;98995;-69
2022/03/26 02:27:35;;;;;;;56.05;26.85;;;;;;;13.18;43.10;102438.47;4834700;29;99025;-70
2022/03/26 02:30:02;;;;;;;53.38;24.58;;;;;;;12.61;44.78;102437.69;4833887;29;97640;-70
2022/03/26 02:32:29;;;;;;;53.92;24.52;;;;;;;13.02;43.94;102432.53;4835869;29;102082;-71
2022/03/26 02:34:56;;;;;;;48.22;22.98;;;;;;;13.46;42.95;102431.66;4835861;29;98891;-71
2022/03/26 02:37:24;;;;;;;58.28;25.30;;;;;;;13.79;42.05;102414.13;4834813;29;97122;-71
2022/03/26 02:39:51;;;;;;;59.17;24.95;;;;;;;13.91;41.67;102413.00;4834991;29;96825;-72
2022/03/26 02:42:18;;;;;;;56.92;23.88;;;;;;;13.78;41.96;102407.09;4835616;29;99046;-72
2022/03/26 02:44:44;;;;;;;51.20;23.45;;;;;;;13.86;41.73;102405.09;4833866;29;99285;-72
2022/03/26 02:47:11;;;;;;;51.78;25.10;;;;;;;14.06;41.47;102406.44;4837344;29;97955;-72
2022/03/26 02:49:38;;;;;;;53.42;25.35;;;;;;;13.78;42.18;102415.06;4834417;29;99093;-71
2022/03/26 02:52:05;;;;;;;56.13;24.58;;;;;;;13.74;42.46;102404.50;4838015;29;99002;-71
2022/03/26 02:54:35;;;;;;;50.72;25.02;;;;;;;13.65;42.86;102405.63;4835112;29;99051;-71
2022/03/26 02:57:02;;;;;;;59.67;25.50;;;;;;;13.18;43.93;102403.94;4839733;29;96909;-72
2022/03/26 02:59:29;;;;;;;57.70;26.27;;;;;;;12.96;44.61;102403.47;4833958;29;98348;-72
2022/03/26 03:01:55;;;;;;;53.83;26.25;;;;;;;13.20;43.86;102406.56;4839777;29;102081;-72
2022/03/26 03:04:21;;;;;;;52.55;24.92;;;;;;;13.30;43.66;102408.13;4843316;29;98907;-71
2022/03/26 03:06:48;;;;;;;53.88;25.42;;;;;;;13.63;43.11;102412.72;4840637;29;97951;-72
2022/03/26 03:09:14;;;;;;;54.70;26.13;;;;;;;13.12;44.08;102407.59;4837022;29;98003;-72
2022/03/26 03:11:42;;;;;;;46.47;25.42;;;;;;;13.16;44.03;102406.63;4835580;29;99449;-72
2022/03/26 03:14:10;;;;;;;55.13;26.75;;;;;;;12.61;45.64;102416.47;4836584;29;98815;-73
2022/03/26 03:16:37;;;;;;;55.80;25.65;;;;;;;13.07;44.91;102406.75;4838145;29;97054;-73
2022/03/26 03:19:03;;;;;;;56.90;26.23;;;;;;;12.93;45.12;102403.50;4841925;29;97002;-71
2022/03/26 03:21:30;;;;;;;54.33;26.58;;;;;;;12.34;46.50;102409.88;4832886;28;99159;-71
2022/03/26 03:23:56;;;;;;;56.70;25.20;;;;;;;13.03;45.39;102399.78;4843271;29;99480;-71
2022/03/26 03:26:23;;;;;;;55.30;25.80;;;;;;;13.34;44.25;102409.81;4835203;29;98408;-71
2022/03/26 03:28:50;;;;;;;52.17;25.83;;;;;;;13.55;43.88;102399.63;4829488;29;99040;-74
2022/03/26 03:31:17;;;;;;;51.25;25.50;;;;;;;13.33;44.46;102406.28;4830562;29;99224;-71
2022/03/26 03:33:43;;;;;;;52.42;25.80;;;;;;;13.48;44.28;102400.66;4833544;29;100020;-71
2022/03/26 03:36:10;;;;;;;69.07;27.10;;;;;;;13.48;44.27;102400.66;4830868;29;97054;-71
2022/03/26 03:38:36;;;;;;;50.90;25.23;;;;;;;13.46;44.40;102396.25;4833582;29;99253;-70
2022/03/26 03:41:03;;;;;;;58.42;27.73;;;;;;;13.52;44.29;102401.47;4829184;29;99120;-70
2022/03/26 03:43:29;;;;;;;61.22;26.35;;;;;;;13.05;45.28;102403.28;4829226;29;101396;-72
2022/03/26 03:45:57;;;;;;;53.08;25.73;;;;;;;12.88;45.86;102405.38;4829668;29;97155;-72
2022/03/26 03:48:23;;;;;;;53.60;26.67;;;;;;;12.96;45.76;102399.94;4827043;29;97157;-72
2022/03/26 03:50:49;;;;;;;49.20;26.10;;;;;;;13.03;45.69;102406.88;4828632;29;99784;-71
2022/03/26 03:53:17;;;;;;;52.15;27.17;;;;;;;12.85;45.77;102410.75;4840921;29;98849;-72
2022/03/26 03:55:43;;;;;;;56.13;27.88;;;;;;;12.03;47.97;102414.78;4834605;29;96827;-71
2022/03/26 03:58:09;;;;;;;58.25;26.38;;;;;;;12.52;47.13;102400.75;4839344;29;97225;-70
2022/03/26 04:00:36;;;;;;;53.08;27.35;;;;;;;12.70;46.61;102400.41;4835353;29;101426;-71
2022/03/26 04:03:04;;;;;;;52.33;28.05;;;;;;;12.83;45.98;102399.28;4839316;29;99653;-72
2022/03/26 04:05:30;;;;;;;59.28;25.55;;;;;;;12.53;47.13;102399.84;4837094;29;97014;-72
2022/03/26 04:07:57;;;;;;;56.25;26.35;;;;;;;12.61;46.99;102396.13;4837621;29;97035;-70
2022/03/26 04:10:23;;;;;;;60.25;26.70;;;;;;;12.93;45.93;102392.03;4836383;29;99314;-70
2022/03/26 04:12:49;;;;;;;54.20;27.05;;;;;;;12.94;45.79;102394.63;4829242;29;99116;-70
2022/03/26 04:15:16;;;;;;;54.53;26.83;;;;;;;12.85;46.12;102394.84;4836326;29;98765;-71
2022/03/26 04:17:42;;;;;;;55.88;27.15;;;;;;;12.99;45.76;102392.78;4833757;29;97988;-71
2022/03/26 04:20:11;;;;;;;54.17;27.38;;;;;;;13.00;45.79;102394.53;4833571;29;97943;-70
2022/03/26 04:22:37;;;;;;;57.28;29.58;;;;;;;12.67;46.99;102395.16;4839049;29;98377;-71
2022/03/26 04:25:05;;;;;;;58.38;28.17;;;;;;;12.51;47.15;102399.88;4826677;29;96916;-69
2022/03/26 04:27:32;;;;;;;65.13;29.13;;;;;;;12.52;47.14;102404.28;4833567;29;97260;-71
2022/03/26 04:29:59;;;;;;;59.22;29.80;;;;;;;12.52;47.00;102403.41;4832750;29;98898;-70
2022/03/26 04:32:25;;;;;;;58.40;29.67;;;;;;;12.31;47.60;102402.84;4833752;29;98817;-71
2022/03/26 04:34:51;;;;;;;66.38;30.20;;;;;;;12.60;46.93;102401.50;4839335;29;96889;-71
2022/03/26 04:37:19;;;;;;;58.67;30.38;;;;;;;12.10;48.32;102392.59;4837696;29;97160;-71
2022/03/26 04:39:46;;;;;;;58.80;27.92;;;;;;;12.52;47.14;102392.78;4837685;29;99079;-71
2022/03/26 04:42:12;;;;;;;62.47;30.17;;;;;;;12.56;47.18;102399.78;4835678;29;100666;-71
2022/03/26 04:44:39;;;;;;;60.65;29.88;;;;;;;11.84;48.69;102403.59;4839288;29;96870;-71
2022/03/26 04:47:06;;;;;;;70.60;31.98;;;;;;;12.57;47.14;102396.22;4837777;29;97306;-70
2022/03/26 04:49:33;;;;;;;65.03;30.67;;;;;;;12.71;46.77;102408.34;4834115;29;98439;-70
2022/03/26 04:51:59;;;;;;;59.88;30.83;;;;;;;12.42;47.25;102409.75;4829437;29;99239;-71
2022/03/26 04:54:27;;;;;;;64.05;32.45;;;;;;;12.68;46.73;102407.50;4832194;29;96818;-71
2022/03/26 04:56:54;;;;;;;60.63;30.08;;;;;;;12.05;48.57;102420.94;4833101;29;98048;-71
2022/03/26 04:59:20;;;;;;;65.50;31.15;;;;;;;12.26;47.59;102420.63;4836043;29;99171;-70
2022/03/26 05:01:47;;;;;;;65.47;31.25;;;;;;;12.18;48.12;102422.50;4837425;29;98885;-70
2022/03/26 05:04:14;;;;;;;67.45;32.10;;;;;;;11.72;49.50;102416.09;4834747;29;97176;-71
2022/03/26 05:06:41;;;;;;;68.95;33.03;;;;;;;12.04;48.57;102411.22;4832773;29;96865;-71
2022/03/26 05:09:07;;;;;;;64.60;31.15;;;;;;;11.87;49.06;102410.63;4831573;29;98895;-70
2022/03/26 05:11:35;;;;;;;68.30;32.53;;;;;;;11.51;50.13;102415.47;4832474;29;98880;-70
2022/03/26 05:14:02;;;;;;;69.03;32.10;;;;;;;11.90;49.33;102410.56;4840020;29;96973;-70
2022/03/26 05:16:28;;;;;;;64.00;31.48;;;;;;;12.04;48.58;102416.53;4836081;29;98555;-69
2022/03/26 05:18:55;;;;;;;64.63;32.58;;;;;;;12.31;47.92;102408.16;4837919;29;99308;-71
2022/03/26 05:21:21;;;;;;;68.38;33.78;;;;;;;12.01;48.63;102413.94;4833586;29;99263;-71
2022/03/26 05:23:47;;;;;;;71.03;33.53;;;;;;;12.16;48.47;102416.34;4832958;29;97106;-72
2022/03/26 05:26:14;;;;;;;66.55;32.67;;;;;;;12.43;47.73;102419.44;4831871;29;97316;-72
2022/03/26 05:28:41;;;;;;;70.68;32.65;;;;;;;12.34;47.89;102412.50;4835870;29;98844;-72
2022/03/26 05:31:08;;;;;;;71.03;33.70;;;;;;;12.33;47.50;102416.97;4833417;29;99138;-71
2022/03/26 05:33:34;;;;;;;64.78;33.42;;;;;;;12.37;47.85;102412.47;4837080;29;97132;-71
2022/03/26 05:36:01;;;;;;;69.20;34.72;;;;;;;11.42;49.63;102410.28;4834350;29;96963;-71
2022/03/26 05:38:27;;;;;;;72.60;33.05;;;;;;;12.37;48.13;102417.78;4836840;29;100711;-71
2022/03/26 05:40:54;;;;;;;70.85;32.55;;;;;;;12.41;47.39;102418.59;4830394;29;99215;-71
2022/03/26 05:43:20;;;;;;;82.68;35.00;;;;;;;12.61;47.14;102416.47;4834058;29;97121;-71
2022/03/26 05:45:50;;;;;;;72.10;34.25;;;;;;;12.58;46.94;102406.81;4833405;29;96887;-70
2022/03/26 05:48:18;;;;;;;65.40;33.25;;;;;;;12.70;46.45;102424.28;4838210;29;100106;-71
2022/03/26 05:50:44;;;;;;;68.32;34.55;;;;;;;12.72;46.62;102419.84;4835524;29;97705;-70
2022/03/26 05:53:11;;;;;;;67.60;33.30;;;;;;;12.93;46.09;102413.25;4834135;29;96819;-71
2022/03/26 05:55:38;;;;;;;65.22;34.80;;;;;;;12.76;46.37;102416.22;4831939;29;97107;-71
2022/03/26 05:58:05;;;;;;;61.90;33.20;;;;;;;12.05;48.00;102420.06;4838115;29;99144;-72
2022/03/26 06:00:31;;;;;;;65.95;32.90;;;;;;;12.23;47.92;102420.66;4839699;29;99233;-72
2022/03/26 06:02:59;;;;;;;71.15;34.05;;;;;;;12.72;46.75;102425.13;4836195;29;96936;-72
2022/03/26 06:05:25;;;;;;;72.40;33.08;;;;;;;12.72;46.67;102418.06;4837167;29;96822;-71
2022/03/26 06:07:51;;;;;;;68.47;33.17;;;;;;;13.29;45.24;102417.00;4838985;29;99015;-72
2022/03/26 06:10:18;;;;;;;66.25;33.20;;;;;;;13.12;45.75;102426.19;4836062;29;98820;-70
2022/03/26 06:12:45;;;;;;;66.47;33.47;;;;;;;12.78;45.97;102423.25;4838428;29;97084;-72
2022/03/26 06:15:12;;;;;;;63.35;32.50;;;;;;;13.40;45.19;102425.59;4834832;29;97971;-72
2022/03/26 06:17:38;;;;;;;56.13;31.00;;;;;;;13.27;45.33;102419.69;4839827;29;98527;-71
2022/03/26 06:20:07;;;;;;;66.90;32.28;;;;;;;13.40;44.82;102421.16;4832015;29;97556;-72
2022/03/26 06:22:33;;;;;;;71.25;33.15;;;;;;;12.57;47.05;102417.44;4838118;29;97754;-70
2022/03/26 06:25:00;;;;;;;64.80;33.55;;;;;;;12.86;46.55;102417.81;4831184;29;97794;-71
2022/03/26 06:27:26;;;;;;;63.13;33.25;;;;;;;13.21;45.46;102417.16;4836109;29;99247;-72
2022/03/26 06:29:53;;;;;;;67.60;32.85;;;;;;;13.19;45.77;102407.47;4839035;29;99125;-71
2022/03/26 06:32:19;;;;;;;68.15;32.70;;;;;;;12.81;47.14;102411.69;4838111;29;97030;-72
2022/03/26 06:34:46;;;;;;;71.50;32.45;;;;;;;12.89;46.96;102417.75;4841326;29;97033;-72
2022/03/26 06:37:13;;;;;;;71.63;33.30;;;;;;;13.00;46.68;102407.78;4839781;29;98972;-70
2022/03/26 06:39:41;;;;;;;62.40;32.50;;;;;;;13.54;45.25;102404.94;4834574;29;98928;-73
2022/03/26 06:42:08;;;;;;;69.18;32.05;;;;;;;13.11;46.11;102403.16;4835035;29;98624;-71
2022/03/26 06:44:34;;;;;;;68.88;31.80;;;;;;;13.37;45.38;102402.66;4836600;29;97245;-71
2022/03/26 06:47:01;;;;;;;60.45;32.22;;;;;;;13.78;44.78;102401.78;4836082;29;99571;-71
2022/03/26 06:49:30;;;;;;;65.68;30.58;;;;;;;13.93;44.43;102397.88;4837610;29;99196;-71
2022/03/26 06:51:57;;;;;;;71.78;32.95;;;;;;;13.48;45.54;102402.44;4836876;29;96878;-72
2022/03/26 06:54:24;;;;;;;59.03;31.05;;;;;;;13.83;44.60;102399.88;4836257;29;97694;-71
2022/03/26 06:56:51;;;;;;;56.55;30.85;;;;;;;14.19;43.87;102398.13;4833074;29;101759;-73
2022/03/26 06:59:19;;;;;;;61.38;32.03;;;;;;;13.81;44.71;102419.41;4839718;29;99236;-72
2022/03/26 07:01:45;;;;;;;63.85;31.40;;;;;;;14.22;43.96;102424.66;4835246;29;96793;-73
2022/03/26 07:04:12;;;;;;;65.93;32.10;;;;;;;14.13;44.04;102416.00;4842840;29;96946;-71
2022/03/26 07:06:39;;;;;;;62.55;31.58;;;;;;;13.81;44.83;102411.44;4834643;29;99498;-71
2022/03/26 07:09:05;;;;;;;55.88;30.40;;;;;;;13.63;44.98;102410.06;4838723;29;98992;-72
2022/03/26 07:11:33;;;;;;;72.68;32.17;;;;;;;14.07;44.31;102402.88;4837095;29;98699;-71
2022/03/26 07:13:59;;;;;;;59.65;31.27;;;;;;;14.63;42.69;102410.34;4839416;29;97076;-72
2022/03/26 07:16:26;;;;;;;57.58;32.15;;;;;;;14.09;43.95;102409.91;4833050;29;97755;-72
2022/03/26 07:18:52;;;;;;;57.72;31.00;;;;;;;14.75;42.48;102412.69;4842025;29;100893;-71
2022/03/26 07:21:19;;;;;;;56.53;31.05;;;;;;;14.72;42.45;102425.19;4832917;29;97184;-72
2022/03/26 07:23:45;;;;;;;59.25;31.92;;;;;;;14.31;43.17;102421.75;4833147;29;96867;-71
2022/03/26 07:26:12;;;;;;;62.60;31.92;;;;;;;14.81;42.21;102435.59;4837121;29;99211;-72
2022/03/26 07:29:02;;;;;;;59.85;31.77;;;;;;;15.19;41.62;102423.03;4839192;29;101969;-71
2022/03/26 07:31:40;;;;;;;58.05;30.50;;;;;;;15.59;40.59;102423.66;4837794;29;96858;-72
2022/03/26 07:34:11;;;;;;;58.88;30.30;;;;;;;14.67;42.02;102419.13;4848137;23;98921;-72
2022/03/26 07:36:56;;;;;;;56.80;29.98;;;;;;;14.37;43.75;102428.72;4851983;29;99170;-71
2022/03/26 07:39:29;;;;;;;59.10;30.48;;;;;;;14.72;43.05;102423.41;4850765;28;97021;-70
2022/03/26 07:41:56;;;;;;;56.20;29.08;;;;;;;14.69;42.90;102420.84;4848181;29;98580;-71
2022/03/26 07:44:24;;;;;;;58.53;30.13;;;;;;;13.82;44.64;102411.41;4853130;29;96916;-74
2022/03/26 07:46:50;;;;;;;55.90;30.65;;;;;;;14.25;44.42;102413.03;4849043;28;98840;-71
2022/03/26 07:49:16;;;;;;;57.78;29.98;;;;;;;14.79;43.30;102420.56;4851595;29;102196;-71
2022/03/26 07:51:43;;;;;;;58.10;29.23;;;;;;;14.46;43.73;102407.25;4846606;29;97655;-72
2022/03/26 07:54:09;;;;;;;57.55;29.73;;;;;;;15.42;42.13;102401.94;4851072;28;97473;-72
2022/03/26 07:56:35;;;;;;;62.92;30.15;;;;;;;15.98;40.75;102397.56;4851068;29;101674;-73
2022/03/26 07:59:02;;;;;;;55.50;28.60;;;;;;;15.65;41.41;102403.94;4853150;29;98846;-72
2022/03/26 08:01:30;;;;;;;50.65;29.23;;;;;;;15.88;41.18;102402.31;4852445;28;98233;-71
2022/03/26 08:03:56;;;;;;;53.22;29.30;;;;;;;16.24;40.39;102410.06;4854040;29;98124;-71
2022/03/26 08:06:24;;;;;;;57.00;29.42;;;;;;;16.14;40.46;102414.84;4850946;29;97779;-71
2022/03/26 08:08:51;;;;;;;63.10;30.70;;;;;;;15.87;40.95;102410.38;4851680;29;100922;-72
2022/03/26 08:11:18;;;;;;;54.83;28.17;;;;;;;15.92;40.87;102409.31;4850619;29;99308;-72
2022/03/26 08:13:45;;;;;;;55.13;28.23;;;;;;;16.32;40.24;102408.91;4853037;28;96855;-71
2022/03/26 08:16:11;;;;;;;57.58;28.42;;;;;;;16.44;40.05;102402.25;4850709;29;98284;-72
2022/03/26 08:18:39;;;;;;;59.45;28.63;;;;;;;16.86;39.28;102415.97;4850499;29;102278;-71
2022/03/26 08:21:06;;;;;;;49.33;27.13;;;;;;;16.07;40.85;102421.28;4851184;29;97221;-71
2022/03/26 08:23:33;;;;;;;57.08;27.92;;;;;;;16.51;40.04;102417.16;4853740;29;97022;-72
2022/03/26 08:28:43;;;;;;;51.97;25.48;;;;;;;16.81;39.60;102409.91;4849127;29;97219;-73
2022/03/26 08:31:10;;;;;;;49.05;25.60;;;;;;;16.19;40.47;102420.88;4851583;28;96793;-72
2022/03/26 08:33:37;;;;;;;47.47;24.23;;;;;;;16.64;40.03;102401.63;4847608;29;98702;-72
2022/03/26 08:36:05;;;;;;;44.72;24.60;;;;;;;16.40;40.58;102413.97;4830905;29;97790;-72
2022/03/26 08:38:35;;;;;;;44.13;22.23;;;;;;;16.68;39.58;102390.78;4829971;29;98712;-71
2022/03/26 08:41:01;;;;;;;48.17;23.90;;;;;;;16.72;39.94;102405.78;4831715;29;96855;-72
2022/03/26 08:43:28;;;;;;;39.45;22.65;;;;;;;16.95;39.45;102402.28;4831789;29;96800;-71
2022/03/26 08:45:54;;;;;;;44.80;22.77;;;;;;;16.45;40.47;102411.16;4831430;29;101266;-70
2022/03/26 08:48:21;;;;;;;45.00;23.50;;;;;;;16.99;39.27;102408.41;4833527;29;99289;-71
2022/03/26 08:50:48;;;;;;;45.70;25.13;;;;;;;17.12;39.14;102417.72;4832190;29;97256;-73
2022/03/26 08:53:16;;;;;;;63.42;23.45;;;;;;;16.72;40.12;102416.47;4833383;29;96837;-73
2022/03/26 08:55:42;;;;;;;43.95;23.02;;;;;;;16.88;39.78;102418.56;4829621;29;101384;-72
2022/03/26 08:58:09;;;;;;;41.85;23.35;;;;;;;16.92;39.76;102409.53;4832778;29;101496;-73
2022/03/26 09:00:35;;;;;;;38.92;22.25;;;;;;;17.31;38.74;102415.22;4829242;29;97041;-71
2022/03/26 09:03:03;;;;;;;45.28;23.08;;;;;;;17.53;38.60;102414.34;4833615;29;96921;-72
2022/03/26 09:05:30;;;;;;;45.28;24.45;;;;;;;16.89;40.14;102405.16;4829098;29;99277;-72
2022/03/26 09:07:56;;;;;;;41.25;22.48;;;;;;;17.04;39.56;102412.63;4831684;29;97777;-71
2022/03/26 09:10:24;;;;;;;41.95;22.52;;;;;;;17.10;39.36;102414.22;4833906;29;96903;-72
2022/03/26 09:12:52;;;;;;;41.17;21.55;;;;;;;17.30;39.45;102410.81;4832367;29;98494;-73
2022/03/26 09:15:18;;;;;;;41.42;21.50;;;;;;;17.43;39.19;102414.78;4834698;29;100124;-73
2022/03/26 09:17:45;;;;;;;34.75;21.05;;;;;;;17.42;39.07;102413.03;4834176;29;99103;-72
2022/03/26 09:20:11;;;;;;;35.20;20.92;;;;;;;17.66;39.03;102414.78;4828632;29;97314;-71
2022/03/26 09:22:38;;;;;;;28.73;18.65;;;;;;;17.88;38.61;102421.03;4833491;29;97251;-73
2022/03/26 09:25:08;;;;;;;38.90;21.15;;;;;;;18.80;37.04;102412.78;4829381;29;101677;-74
2022/03/26 09:27:36;;;;;;;38.33;19.77;;;;;;;18.83;36.65;102418.00;4831652;29;99792;-71
2022/03/26 09:30:06;;;;;;;43.45;20.15;;;;;;;18.57;37.54;102418.25;4827603;29;96896;-72
2022/03/26 09:32:33;;;;;;;34.25;16.88;;;;;;;17.44;40.14;102420.06;4828110;29;99763;-71
2022/03/26 09:34:59;;;;;;;27.63;14.82;;;;;;;17.14;40.91;102419.38;4827634;29;101572;-71
2022/03/26 09:37:26;;;;;;;33.10;15.13;;;;;;;16.59;42.72;102419.56;4828004;29;98126;-71
2022/03/26 09:39:54;;;;;;;26.50;14.77;;;;;;;16.41;43.26;102426.38;4830364;29;97106;-71
2022/03/26 09:42:22;;;;;;;22.88;13.98;;;;;;;16.74;42.60;102419.03;4829843;29;98345;-73
2022/03/26 09:44:50;;;;;;;26.75;14.63;;;;;;;16.72;42.68;102423.59;4828050;29;99013;-73
2022/03/26 09:47:17;;;;;;;29.58;14.68;;;;;;;17.82;40.21;102420.41;4827315;29;102236;-71
2022/03/26 09:49:44;;;;;;;31.80;15.32;;;;;;;17.76;40.39;102428.69;4829919;29;98922;-72
2022/03/26 09:52:10;;;;;;;30.27;16.20;;;;;;;17.28;41.16;102424.22;4829309;29;97189;-72
2022/03/26 09:54:37;;;;;;;29.77;15.95;;;;;;;17.16;41.38;102426.47;4830369;29;99060;-72
2022/03/26 09:57:04;;;;;;;32.95;17.23;;;;;;;17.19;41.50;102413.88;4831712;29;100209;-72
2022/03/26 09:59:32;;;;;;;31.10;17.25;;;;;;;17.10;41.69;102423.09;4827914;29;98796;-70
2022/03/26 10:02:01;;;;;;;33.45;17.85;;;;;;;17.69;40.44;102421.81;4829556;29;97050;-72
2022/03/26 10:04:37;;;;;;;33.00;18.38;;;;;;;17.12;41.69;102417.72;4831799;29;99453;-67
2022/03/26 10:07:09;;;;;;;37.22;16.73;;;;;;;18.09;39.64;102429.16;4823945;29;99269;-70
2022/03/26 10:09:38;;;;;;;35.60;18.67;;;;;;;18.38;39.07;102414.59;4831141;29;96881;-68
2022/03/26 10:12:06;;;;;;;36.08;19.70;;;;;;;18.20;39.38;102427.78;4828326;29;98738;-69
2022/03/26 10:14:45;;;;;;;35.92;19.17;;;;;;;17.80;40.18;102416.91;4829712;29;99128;-68
2022/03/26 10:17:18;;;;;;;37.67;18.23;;;;;;;17.52;40.88;102417.09;4830070;29;98918;-68
2022/03/26 10:19:46;;;;;;;34.83;20.35;;;;;;;17.30;41.30;102409.00;4831581;29;97502;-68
2022/03/26 10:22:23;;;;;;;37.90;19.98;;;;;;;18.18;39.87;102415.41;4829944;29;96933;-68
2022/03/26 10:24:50;;;;;;;40.70;20.42;;;;;;;18.01;40.28;102410.72;4830512;29;99290;-69
2022/03/26 10:27:17;;;;;;;35.10;20.73;;;;;;;17.59;41.15;102410.56;4825029;29;98885;-68
2022/03/26 10:29:52;;;;;;;37.03;19.35;;;;;;;17.57;41.32;102422.25;4824715;29;97833;-69
2022/03/26 10:32:39;;;;;;;35.22;19.40;;;;;;;17.95;41.03;102410.97;4824466;29;97590;-69
2022/03/26 10:35:08;;;;;;;37.30;20.13;;;;;;;17.33;42.29;102411.56;4829056;29;98875;-69
2022/03/26 10:37:43;;;;;;;34.60;19.67;;;;;;;17.47;41.81;102408.38;4829227;29;99202;-69
2022/03/26 10:40:17;;;;;;;34.03;19.17;;;;;;;18.16;40.46;102411.91;4829958;29;97838;-70
2022/03/26 10:42:44;;;;;;;33.13;18.98;;;;;;;18.25;40.64;102414.19;4832432;29;97749;-70
2022/03/26 10:45:14;;;;;;;37.05;19.23;;;;;;;18.09;41.07;102422.00;4831128;29;101589;-69
2022/03/26 10:47:42;;;;;;;35.28;20.10;;;;;;;18.10;40.84;102413.03;4831872;29;102349;-69
2022/03/26 10:50:09;;;;;;;38.28;21.10;;;;;;;18.26;40.52;102424.84;4832688;29;97254;-70
2022/03/26 10:52:35;;;;;;;38.85;21.20;;;;;;;17.83;41.71;102425.72;4834442;29;97170;-72
2022/03/26 10:55:02;;;;;;;35.25;19.92;;;;;;;18.21;40.99;102428.66;4832909;29;98476;-70
2022/03/26 10:57:28;;;;;;;38.97;20.00;;;;;;;17.88;41.91;102426.38;4835902;29;98583;-70
2022/03/26 10:59:56;;;;;;;41.03;20.88;;;;;;;17.80;42.28;102425.81;4829640;29;97361;-71
2022/03/26 11:02:23;;;;;;;38.40;21.92;;;;;;;17.78;42.22;102419.69;4827369;29;97078;-69
2022/03/26 11:04:51;;;;;;;39.05;21.02;;;;;;;17.50;42.67;102421.63;4831215;29;98396;-71
2022/03/26 11:07:17;;;;;;;35.33;21.17;;;;;;;17.69;42.17;102414.69;4830587;29;99122;-71
2022/03/26 11:09:45;;;;;;;38.15;21.83;;;;;;;17.45;42.88;102420.94;4832478;29;96862;-70
2022/03/26 11:12:12;;;;;;;38.05;22.00;;;;;;;17.86;42.00;102427.38;4834158;29;96925;-69